Time;durP1;ratioP1;P1;durP2;ratioP2;P2;SDS_P1;SDS_P2;PMS_P1;PMS_P2;Temp;Humidity;BMP_temperature;BMP_pressure;BME280_temperature;BME280_humidity;BME280_pressure;Samples;Min_cycle;Max_cycle;Signal;HPM_P1;HPM_P2
2022/06/03 00:01:46;;;;;;;7.88;7.03;;;11.40;99.90;;;;;;5112187;27;1234179;-70
2022/06/03 00:04:42;;;;;;;9.45;6.78;;;11.30;99.90;;;;;;5130242;28;20031;-70
2022/06/03 00:07:24;;;;;;;7.03;6.32;;;11.30;99.90;;;;;;5131433;28;20035;-70
2022/06/03 00:10:21;;;;;;;8.10;6.95;;;11.20;99.90;;;;;;5130203;28;20020;-70
2022/06/03 00:13:26;;;;;;;7.68;6.45;;;11.20;99.90;;;;;;5115854;28;20049;-70
2022/06/03 00:16:10;;;;;;;7.07;6.38;;;11.10;99.90;;;;;;5131320;28;20023;-70
2022/06/03 00:18:55;;;;;;;7.38;6.35;;;10.90;99.90;;;;;;5113630;28;20077;-70
2022/06/03 00:21:55;;;;;;;8.45;6.93;;;10.80;99.90;;;;;;5131285;27;20482;-70
2022/06/03 00:24:31;;;;;;;8.55;6.75;;;10.80;99.90;;;;;;5129797;28;20023;-70
2022/06/03 00:27:37;;;;;;;10.02;7.93;;;10.80;99.90;;;;;;5130078;28;20461;-70
2022/06/03 00:30:42;;;;;;;9.95;8.25;;;10.70;99.90;;;;;;5130908;28;20152;-70
2022/06/03 00:36:21;;;;;;;9.40;8.07;;;10.70;99.90;;;;;;5111169;27;20105;-70
2022/06/03 00:39:16;;;;;;;9.38;7.70;;;10.70;99.90;;;;;;5109713;28;20040;-70
2022/06/03 00:41:59;;;;;;;10.20;7.95;;;10.60;99.90;;;;;;5110039;28;20027;-70
2022/06/03 00:47:25;;;;;;;11.15;8.75;;;10.60;99.90;;;;;;5173402;27;19911;-69
2022/06/03 00:50:20;;;;;;;9.15;8.25;;;10.60;99.90;;;;;;5152048;27;20038;-70
2022/06/03 00:53:14;;;;;;;9.75;8.75;;;10.70;99.90;;;;;;5152095;27;20019;-69
2022/06/03 00:56:05;;;;;;;10.20;7.95;;;10.70;99.90;;;;;;5152106;27;20076;-70
2022/06/03 00:59:05;;;;;;;8.60;7.70;;;10.70;99.90;;;;;;5152000;27;20120;-70
2022/06/03 01:01:42;;;;;;;9.15;8.25;;;10.80;99.90;;;;;;5152097;27;20380;-70
2022/06/03 01:04:35;;;;;;;10.27;8.00;;;10.80;99.90;;;;;;5151968;27;20057;-70
2022/06/03 01:07:11;;;;;;;10.15;8.23;;;10.70;99.90;;;;;;5151895;27;20420;-70
2022/06/03 01:10:05;;;;;;;9.77;8.77;;;10.70;99.90;;;;;;5133402;27;20065;-70
2022/06/03 01:13:01;;;;;;;9.75;8.75;;;10.70;99.90;;;;;;5151865;27;20019;-70
2022/06/03 01:18:30;;;;;;;9.00;8.05;;;10.60;99.90;;;;;;5111184;27;20438;-70
2022/06/03 01:21:18;;;;;;;8.93;8.02;;;10.40;99.90;;;;;;5109929;28;20028;-70
2022/06/03 01:27:09;;;;;;;10.77;8.73;;;10.40;99.90;;;;;;5093597;27;20398;-70
2022/06/03 01:30:15;;;;;;;10.70;8.48;;;10.30;99.90;;;;;;5072411;28;20028;-70
2022/06/03 01:33:09;;;;;;;10.55;8.85;;;10.30;99.90;;;;;;5090464;28;20063;-70
2022/06/03 01:36:06;;;;;;;10.57;8.88;;;10.40;99.90;;;;;;5072258;28;20016;-70
2022/06/03 01:39:11;;;;;;;9.25;8.00;;;10.30;99.90;;;;;;5072231;28;20483;-70
2022/06/03 01:42:12;;;;;;;9.80;8.80;;;10.30;99.90;;;;;;5090291;28;20025;-70
2022/06/03 01:45:07;;;;;;;10.32;9.13;;;10.20;99.90;;;;;;5090192;28;20085;-70
2022/06/03 01:48:08;;;;;;;10.32;8.68;;;10.10;99.90;;;;;;5090276;28;20021;-70
2022/06/03 01:50:57;;;;;;;11.07;9.10;;;10.00;99.90;;;;;;5090355;28;20516;-70
2022/06/03 01:54:00;;;;;;;9.60;8.50;;;10.00;99.90;;;;;;5090223;28;20020;-70
2022/06/03 01:57:05;;;;;;;9.40;8.30;;;10.00;99.90;;;;;;5072130;28;20020;-70
2022/06/03 01:59:57;;;;;;;10.45;8.25;;;10.10;99.90;;;;;;5089912;28;20090;-70
2022/06/03 02:03:03;;;;;;;9.32;8.13;;;10.10;99.90;;;;;;5055338;28;20063;-70
2022/06/03 02:06:08;;;;;;;11.38;8.43;;;10.20;99.90;;;;;;5089674;28;20025;-70
2022/06/03 02:09:13;;;;;;;10.10;8.68;;;10.10;99.90;;;;;;5089829;28;20020;-70
2022/06/03 02:12:02;;;;;;;12.40;8.60;;;10.10;99.90;;;;;;5089751;28;20498;-70
2022/06/03 02:15:07;;;;;;;12.30;8.05;;;10.10;99.90;;;;;;5071805;28;20098;-70
2022/06/03 02:17:59;;;;;;;10.30;8.43;;;10.10;99.90;;;;;;5089507;28;20557;-70
2022/06/03 02:20:55;;;;;;;9.73;7.90;;;10.10;99.90;;;;;;5089588;28;20375;-70
2022/06/03 02:23:59;;;;;;;10.23;7.97;;;10.10;99.90;;;;;;5071319;28;20402;-70
2022/06/03 02:26:45;;;;;;;9.80;7.80;;;10.10;99.90;;;;;;5071017;28;20139;-70
2022/06/03 02:32:59;;;;;;;10.32;8.00;;;9.90;99.90;;;;;;5089221;28;20405;-70
2022/06/03 02:38:26;;;;;;;9.15;8.10;;;;;;;;;;5070672;28;20433;-69
2022/06/03 02:41:12;;;;;;;9.68;8.50;;;9.70;99.90;;;;;;5070411;28;20032;-69
2022/06/03 02:46:34;;;;;;;8.95;7.80;;;9.60;99.90;;;;;;5111257;27;20343;-69
2022/06/03 02:49:29;;;;;;;8.73;7.32;;;9.50;99.90;;;;;;5111065;28;20035;-69
2022/06/03 02:52:22;;;;;;;10.32;8.50;;;9.50;99.90;;;;;;5095597;28;20505;-69
2022/06/03 02:57:55;;;;;;;11.38;8.75;;;9.50;99.90;;;;;;5090634;27;20769;-70
2022/06/03 03:00:55;;;;;;;12.43;8.45;;;9.60;99.90;;;;;;5089308;28;20059;-70
2022/06/03 03:07:05;;;;;;;9.73;7.75;;;9.70;99.90;;;;;;5073335;28;20399;-70
2022/06/03 03:09:59;;;;;;;8.23;7.32;;;9.80;99.90;;;;;;5070400;28;20085;-69
2022/06/03 03:12:45;;;;;;;12.60;7.30;;;9.90;99.90;;;;;;5070404;28;20020;-70
2022/06/03 03:15:33;;;;;;;8.93;7.93;;;9.80;99.90;;;;;;5069319;28;20479;-69
2022/06/03 03:18:18;;;;;;;12.60;8.13;;;9.80;99.90;;;;;;5052311;28;20025;-69
2022/06/03 03:21:03;;;;;;;9.23;6.95;;;9.70;99.90;;;;;;5069141;28;20107;-70
2022/06/03 03:29:28;;;;;;;11.20;8.00;;;9.70;99.90;;;;;;5070563;28;20796;-70
2022/06/03 03:37:45;;;;;;;11.52;8.85;;;9.60;99.90;;;;;;5111248;27;20302;-70
2022/06/03 03:40:42;;;;;;;9.30;8.25;;;9.60;99.90;;;;;;5109865;28;20431;-71
2022/06/03 03:43:31;;;;;;;9.15;8.18;;;9.60;99.90;;;;;;5110977;28;20111;-71
2022/06/03 03:46:21;;;;;;;13.90;8.52;;;9.60;99.90;;;;;;5095026;28;20548;-70
2022/06/03 03:49:15;;;;;;;10.77;8.05;;;9.60;99.90;;;;;;5110902;28;20110;-70
2022/06/03 03:52:07;;;;;;;10.55;8.57;;;9.50;99.90;;;;;;5110803;28;20453;-70
2022/06/03 03:55:12;;;;;;;8.35;7.45;;;9.50;99.90;;;;;;5110713;28;20060;-70
2022/06/03 04:00:47;;;;;;;11.57;8.65;;;9.60;99.90;;;;;;5111239;27;20384;-69
2022/06/03 04:03:38;;;;;;;9.60;8.60;;;9.60;99.90;;;;;;5109857;28;20103;-69
2022/06/03 04:06:36;;;;;;;9.93;8.23;;;9.70;99.90;;;;;;5109947;28;20470;-69
2022/06/03 04:09:41;;;;;;;10.63;8.60;;;9.80;99.90;;;;;;5110869;28;20414;-69
2022/06/03 04:12:28;;;;;;;8.43;7.25;;;9.80;99.90;;;;;;5109481;28;20069;-69
2022/06/03 04:15:33;;;;;;;8.45;7.55;;;9.90;99.90;;;;;;5110889;28;20381;-69
2022/06/03 04:18:39;;;;;;;10.52;8.68;;;9.90;99.90;;;;;;5109249;28;20051;-70
2022/06/03 04:21:23;;;;;;;11.23;8.55;;;10.10;99.90;;;;;;5110647;28;20056;-69
2022/06/03 04:27:42;;;;;;;8.23;6.68;;;10.60;99.90;;;;;;5090713;27;20381;-70
2022/06/03 04:30:47;;;;;;;8.15;6.63;;;11.30;99.90;;;;;;5090508;28;20024;-70
2022/06/03 04:33:49;;;;;;;8.43;6.30;;;11.80;99.90;;;;;;5090533;28;20016;-70
2022/06/03 04:39:47;;;;;;;5.85;4.40;;;12.20;99.90;;;;;;5111172;27;20355;-71
2022/06/03 04:42:52;;;;;;;5.03;4.40;;;17.00;99.90;;;;;;5109606;28;20316;-72
2022/06/03 04:45:58;;;;;;;7.30;3.92;;;18.70;99.90;;;;;;5109632;28;20500;-71
2022/06/03 04:48:57;;;;;;;3.95;3.55;;;19.80;99.90;;;;;;5110785;28;20020;-71
2022/06/03 04:57:20;;;;;;;3.65;3.35;;;20.40;99.90;;;;;;5093300;27;20398;-70
2022/06/03 05:00:08;;;;;;;3.83;3.53;;;20.60;97.40;;;;;;5090768;28;20104;-71
2022/06/03 05:03:14;;;;;;;6.05;3.50;;;21.40;96.10;;;;;;5090743;28;20509;-71
2022/06/03 05:06:19;;;;;;;3.70;3.38;;;22.50;93.20;;;;;;5090461;28;20074;-71
2022/06/03 05:09:05;;;;;;;5.53;3.33;;;;;;;;;;5072282;28;20044;-71
2022/06/03 05:18:02;;;;;;;5.45;3.20;;;22.70;90.60;;;;;;5111246;27;20384;-72
2022/06/03 05:20:48;;;;;;;4.18;3.45;;;22.80;96.50;;;;;;5109623;28;20055;-73
2022/06/03 05:23:35;;;;;;;3.90;3.30;;;22.80;98.20;;;;;;5109798;28;20089;-72
2022/06/03 05:26:40;;;;;;;5.90;3.22;;;22.10;99.90;;;;;;5093079;28;20432;-71
2022/06/03 05:29:46;;;;;;;3.25;2.95;;;23.30;87.70;;;;;;5110849;28;20051;-71
2022/06/03 05:32:42;;;;;;;3.60;2.80;;;24.10;82.30;;;;;;5110652;28;20024;-70
2022/06/03 05:35:46;;;;;;;3.85;3.13;;;23.70;82.00;;;;;;5109404;28;20473;-71
2022/06/03 05:38:52;;;;;;;3.88;3.28;;;23.70;81.00;;;;;;5110650;28;20388;-72
2022/06/03 05:42:23;;;;;;;4.03;3.13;;;23.80;80.00;;;;;;5109310;28;20061;-72
2022/06/03 05:47:22;;;;;;;3.85;3.10;;;24.10;78.70;;;;;;5090905;28;20382;-71
2022/06/03 05:50:03;;;;;;;4.97;3.05;;;25.40;76.00;;;;;;5089515;28;20032;-71
2022/06/03 05:52:42;;;;;;;3.20;2.83;;;25.00;73.90;;;;;;5073536;28;20073;-71
2022/06/03 05:55:20;;;;;;;4.13;3.10;;;25.60;73.30;;;;;;5089460;28;20024;-71
2022/06/03 05:58:11;;;;;;;3.67;2.80;;;23.70;77.60;;;;;;5089239;28;20481;-71
2022/06/03 06:01:03;;;;;;;3.38;2.70;;;24.30;77.00;;;;;;5090353;28;20399;-71
2022/06/03 06:03:55;;;;;;;4.68;3.20;;;25.00;74.80;;;;;;5088022;28;20017;-70
2022/06/03 06:06:51;;;;;;;2.57;2.30;;;25.50;71.80;;;;;;5091001;28;20032;-71
2022/06/03 06:12:34;;;;;;;3.15;2.80;;;26.40;70.90;;;;;;5156107;27;20430;-71
2022/06/03 06:15:41;;;;;;;3.00;2.33;;;25.90;70.60;;;;;;5172759;27;20365;-71
2022/06/03 06:18:26;;;;;;;3.65;2.40;;;26.10;68.10;;;;;;5172000;27;20018;-71
2022/06/03 06:21:17;;;;;;;3.45;2.30;;;25.70;68.00;;;;;;5172919;27;20019;-71
2022/06/03 06:30:11;;;;;;;2.80;2.60;;;26.80;64.70;;;;;;5111055;27;20384;-71
2022/06/03 06:33:14;;;;;;;2.30;2.20;;;26.30;65.50;;;;;;5110775;28;20032;-70
2022/06/03 06:36:11;;;;;;;2.53;2.30;;;25.80;65.90;;;;;;5110889;28;20020;-70
2022/06/03 06:39:17;;;;;;;3.15;2.70;;;26.40;64.20;;;;;;5109222;28;20027;-70
2022/06/03 06:42:22;;;;;;;5.03;2.60;;;26.90;62.50;;;;;;5104173;28;20034;-70
2022/06/03 06:45:19;;;;;;;3.55;2.72;;;26.30;63.10;;;;;;5110590;28;20482;-70
2022/06/03 06:47:55;;;;;;;4.18;2.70;;;26.20;63.70;;;;;;5092308;28;20024;-70
2022/06/03 06:50:27;;;;;;;4.13;2.55;;;26.30;63.00;;;;;;5092515;28;20020;-70
2022/06/03 06:53:03;;;;;;;4.60;2.83;;;26.50;63.80;;;;;;5109502;28;20073;-70
2022/06/03 06:55:42;;;;;;;2.85;2.47;;;27.50;61.40;;;;;;5109388;28;20095;-71
2022/06/03 06:58:24;;;;;;;3.17;2.67;;;28.10;60.50;;;;;;5110419;28;20016;-71
2022/06/03 07:00:52;;;;;;;6.23;3.30;;;27.40;59.50;;;;;;5109339;28;20032;-70
2022/06/03 07:06:17;;;;;;;6.30;2.80;;;27.70;60.10;;;;;;5087240;27;20435;-71
2022/06/03 07:08:50;;;;;;;4.47;2.50;;;28.10;58.30;;;;;;5088644;28;20028;-71
2022/06/03 07:11:36;;;;;;;;;;;27.60;59.30;;;;;;5054554;28;20020;-70
2022/06/03 07:14:10;;;;;;;3.20;2.90;;;26.90;59.90;;;;;;5092137;28;20300;-71
2022/06/03 07:22:30;;;;;;;3.43;2.40;;;28.00;59.60;;;;;;5096084;27;1189229;-71
2022/06/03 07:25:21;;;;;;;3.80;2.70;;;28.20;59.60;;;;;;5129554;28;20027;-71
2022/06/03 07:27:56;;;;;;;2.92;2.58;;;28.40;58.00;;;;;;5109464;28;20141;-71
2022/06/03 07:30:59;;;;;;;2.75;2.58;;;28.60;58.30;;;;;;5111827;28;20050;-71
2022/06/03 07:36:42;;;;;;;4.50;2.72;;;28.00;59.10;;;;;;5170496;27;20441;-71
2022/06/03 07:39:30;;;;;;;3.53;2.53;;;27.30;59.70;;;;;;5153453;27;20377;-71
2022/06/03 07:42:08;;;;;;;2.88;2.67;;;28.90;56.60;;;;;;5154212;27;20109;-71
2022/06/03 07:45:01;;;;;;;3.28;3.00;;;28.70;57.00;;;;;;5153284;27;20401;-71
2022/06/03 07:47:28;;;;;;;7.43;3.17;;;28.80;55.60;;;;;;5150872;27;20018;-71
2022/06/03 07:49:58;;;;;;;2.80;2.60;;;28.80;55.90;;;;;;5171949;27;20067;-71
2022/06/03 07:52:32;;;;;;;3.20;2.90;;;29.00;56.80;;;;;;5172262;27;20015;-71
2022/06/03 07:54:59;;;;;;;5.25;2.92;;;28.60;56.70;;;;;;5152169;27;20037;-70
2022/06/03 07:57:29;;;;;;;4.63;3.15;;;28.30;57.30;;;;;;5154210;27;20097;-69
2022/06/03 07:59:57;;;;;;;4.00;3.13;;;28.40;57.20;;;;;;5171679;27;20015;-69
2022/06/03 08:02:24;;;;;;;8.25;3.05;;;28.50;57.30;;;;;;5154331;27;20011;-69
2022/06/03 08:05:12;;;;;;;3.53;3.20;;;29.40;55.70;;;;;;5170148;27;20035;-69
2022/06/03 08:11:05;;;;;;;3.25;3.03;;;28.10;56.10;;;;;;5166932;27;20030;-67
2022/06/03 08:13:19;;;;;;;2.90;2.70;;;28.20;55.70;;;;;;5169082;27;20025;-67
2022/06/03 08:16:07;;;;;;;5.20;3.28;;;28.40;56.30;;;;;;5153700;27;20118;-69
2022/06/03 08:18:40;;;;;;;2.90;2.67;;;27.70;56.40;;;;;;5135295;27;20046;-67
2022/06/03 08:21:09;;;;;;;3.47;3.15;;;27.90;57.00;;;;;;5158669;27;20027;-69
2022/06/03 08:23:44;;;;;;;5.60;2.72;;;27.10;58.10;;;;;;5151646;27;20534;-71
2022/06/03 08:26:15;;;;;;;4.63;2.50;;;28.00;59.80;;;;;;5136371;27;20094;-69
2022/06/03 08:28:48;;;;;;;5.78;2.65;;;28.50;56.50;;;;;;5136413;27;20476;-68
2022/06/03 08:31:14;;;;;;;3.00;2.80;;;29.10;55.60;;;;;;5153448;27;20393;-68
2022/06/03 08:33:47;;;;;;;3.25;2.95;;;29.00;55.50;;;;;;5165492;27;20474;-70
2022/06/03 08:36:16;;;;;;;5.18;3.10;;;28.70;54.90;;;;;;5153334;27;20526;-69
2022/06/03 08:38:49;;;;;;;2.97;2.67;;;27.90;56.60;;;;;;5172211;27;20026;-68
2022/06/03 08:41:37;;;;;;;4.22;2.63;;;28.60;56.60;;;;;;5128023;27;20014;-69
2022/06/03 08:44:45;;;;;;;3.47;2.90;;;28.60;55.10;;;;;;5163999;27;20081;-71
2022/06/03 08:47:36;;;;;;;4.20;3.50;;;29.20;56.60;;;;;;5152957;27;20022;-72
2022/06/03 08:50:13;;;;;;;3.03;2.83;;;28.30;55.00;;;;;;5148483;27;20084;-71
2022/06/03 08:52:55;;;;;;;2.95;2.53;;;28.50;55.70;;;;;;5149012;27;20469;-71
2022/06/03 08:55:45;;;;;;;3.58;3.22;;;29.60;56.40;;;;;;5118236;27;20033;-71
2022/06/03 08:58:37;;;;;;;5.32;3.50;;;29.10;54.80;;;;;;5138279;27;20025;-71
2022/06/03 09:04:14;;;;;;;4.03;2.30;;;29.30;56.20;;;;;;5111040;27;20388;-68
2022/06/03 09:07:01;;;;;;;3.78;2.80;;;29.30;54.30;;;;;;5109616;28;20039;-69
2022/06/03 09:09:38;;;;;;;4.22;2.55;;;28.30;54.80;;;;;;5107060;28;20024;-69
2022/06/03 09:12:17;;;;;;;4.38;3.22;;;28.40;56.20;;;;;;5108276;28;20035;-69
2022/06/03 09:14:45;;;;;;;2.63;2.42;;;28.90;54.00;;;;;;5096794;28;20101;-69
2022/06/03 09:20:30;;;;;;;1.77;1.67;;;28.30;53.20;;;;;;5132664;27;20400;-70
2022/06/03 09:23:00;;;;;;;3.50;2.80;;;28.30;54.80;;;;;;5099856;28;20023;-70
2022/06/03 09:25:31;;;;;;;6.03;1.80;;;29.40;55.10;;;;;;5110991;28;20390;-70
2022/06/03 09:27:59;;;;;;;2.53;1.75;;;29.40;53.90;;;;;;5110877;28;20398;-70
2022/06/03 09:30:31;;;;;;;3.15;2.65;;;29.30;52.40;;;;;;5092554;28;20052;-70
2022/06/03 09:32:57;;;;;;;3.05;2.70;;;29.30;53.50;;;;;;5089631;28;20056;-70
2022/06/03 09:35:27;;;;;;;2.85;2.60;;;29.60;53.30;;;;;;5126565;28;20077;-69
2022/06/03 09:37:57;;;;;;;2.47;1.85;;;28.60;54.90;;;;;;5111073;28;20085;-69
2022/06/03 09:40:28;;;;;;;2.08;1.90;;;28.40;53.70;;;;;;5110965;28;20035;-70
2022/06/03 09:43:02;;;;;;;4.50;4.07;;;28.40;53.50;;;;;;5117260;28;20045;-70
2022/06/03 09:45:28;;;;;;;4.15;3.25;;;28.20;53.70;;;;;;5096697;28;20114;-69
2022/06/03 09:47:55;;;;;;;3.22;2.92;;;28.90;54.10;;;;;;5131062;28;20431;-69
2022/06/03 09:50:23;;;;;;;5.20;2.88;;;28.20;55.20;;;;;;5090892;28;20102;-70
2022/06/03 09:52:57;;;;;;;3.60;2.70;;;28.20;54.60;;;;;;5116441;28;20357;-70
2022/06/03 09:55:26;;;;;;;3.53;2.42;;;28.90;54.30;;;;;;5094175;28;20107;-69
2022/06/03 09:57:56;;;;;;;3.83;2.15;;;28.30;54.60;;;;;;5113614;28;20393;-69
2022/06/03 10:00:26;;;;;;;2.42;1.60;;;28.90;53.40;;;;;;5100877;28;20478;-70
2022/06/03 10:02:53;;;;;;;2.40;1.73;;;28.00;53.50;;;;;;5090864;28;20016;-71
2022/06/03 10:05:20;;;;;;;3.50;1.67;;;27.40;54.70;;;;;;5116396;28;20026;-70
2022/06/03 10:07:48;;;;;;;1.90;1.70;;;27.40;55.00;;;;;;5109966;28;20501;-69
2022/06/03 10:13:06;;;;;;;3.65;1.50;;;28.60;51.40;;;;;;5088787;28;20035;-70
2022/06/03 10:15:38;;;;;;;1.88;1.70;;;28.30;53.50;;;;;;5089784;28;20043;-70
2022/06/03 10:20:45;;;;;;;1.83;1.70;;;28.80;52.70;;;;;;5069787;28;20750;-69
2022/06/03 10:23:12;;;;;;;2.72;1.42;;;28.90;51.10;;;;;;5061456;28;20029;-70
2022/06/03 10:25:41;;;;;;;2.50;1.30;;;28.10;50.50;;;;;;5053729;28;20456;-70
2022/06/03 10:28:09;;;;;;;1.50;1.40;;;27.90;53.90;;;;;;5048766;28;20551;-70
2022/06/03 10:30:37;;;;;;;2.05;1.27;;;28.30;52.30;;;;;;5053372;28;20027;-69
2022/06/03 10:33:05;;;;;;;2.53;1.77;;;28.60;54.40;;;;;;5057745;28;20056;-69
2022/06/03 10:35:38;;;;;;;2.58;1.52;;;28.90;51.30;;;;;;5067960;28;20048;-69
2022/06/03 10:38:04;;;;;;;1.50;1.40;;;28.80;50.20;;;;;;5070224;28;20048;-69
2022/06/03 10:40:32;;;;;;;2.00;1.35;;;28.30;50.40;;;;;;5070080;28;20078;-69
2022/06/03 10:43:00;;;;;;;2.22;1.50;;;27.50;54.00;;;;;;5049072;28;20060;-69
2022/06/03 10:45:29;;;;;;;2.78;1.20;;;27.50;54.20;;;;;;5032308;28;20035;-70
2022/06/03 10:47:55;;;;;;;2.63;1.30;;;27.20;53.50;;;;;;5046542;28;20468;-70
2022/06/03 11:02:00;;;;;;;1.25;1.15;;;26.10;54.30;;;;;;5049134;28;20022;-69
2022/06/03 11:04:39;;;;;;;1.73;1.40;;;26.00;55.50;;;;;;5050173;28;20028;-70
2022/06/03 11:07:25;;;;;;;1.65;1.55;;;26.10;55.60;;;;;;5033127;28;20017;-69
2022/06/03 11:09:55;;;;;;;1.70;1.60;;;26.60;56.20;;;;;;5049026;28;20059;-70
2022/06/03 11:12:24;;;;;;;1.80;1.50;;;26.70;55.80;;;;;;5050150;28;20025;-69
2022/06/03 11:14:50;;;;;;;2.35;1.83;;;25.90;55.30;;;;;;5051538;28;20029;-69
2022/06/03 11:17:32;;;;;;;4.05;1.60;;;25.70;55.40;;;;;;5068794;28;20502;-69
2022/06/03 11:19:58;;;;;;;1.60;1.50;;;25.00;58.20;;;;;;5070045;28;20021;-70
2022/06/03 11:25:26;;;;;;;3.03;1.48;;;25.00;57.50;;;;;;5111072;27;20377;-69
2022/06/03 11:28:04;;;;;;;2.25;1.70;;;25.70;57.90;;;;;;5107756;28;20026;-69
2022/06/03 11:30:44;;;;;;;2.00;1.27;;;25.70;56.40;;;;;;5111014;28;20103;-69
2022/06/03 11:33:33;;;;;;;2.15;1.65;;;26.20;57.20;;;;;;5107112;28;20036;-69
2022/06/03 11:36:03;;;;;;;2.75;1.23;;;26.40;56.10;;;;;;5094216;28;20040;-70
2022/06/03 11:38:37;;;;;;;1.90;1.25;;;26.30;53.50;;;;;;5089450;28;20107;-70
2022/06/03 11:41:12;;;;;;;1.60;1.10;;;25.30;54.40;;;;;;5100829;28;20024;-71
2022/06/03 11:43:50;;;;;;;3.08;1.20;;;25.00;55.80;;;;;;5092110;28;20040;-70
2022/06/03 11:46:22;;;;;;;1.25;1.17;;;25.20;55.80;;;;;;5090314;28;20016;-70
2022/06/03 11:48:51;;;;;;;5.87;1.60;;;25.20;54.80;;;;;;5103652;28;20030;-68
2022/06/03 11:51:17;;;;;;;2.38;1.33;;;24.90;56.30;;;;;;5089061;28;20289;-70
2022/06/03 11:53:47;;;;;;;2.95;1.15;;;25.40;55.70;;;;;;5102094;28;20095;-69
2022/06/03 11:56:22;;;;;;;1.30;1.20;;;24.90;54.30;;;;;;5095025;28;20102;-68
2022/06/03 11:59:05;;;;;;;1.50;1.40;;;25.20;55.30;;;;;;5088821;28;20436;-69
2022/06/03 12:01:43;;;;;;;3.60;1.60;;;25.30;56.60;;;;;;5103192;28;20020;-70
2022/06/03 12:04:22;;;;;;;1.60;1.42;;;25.70;57.20;;;;;;5091103;28;20104;-69
2022/06/03 12:07:17;;;;;;;1.88;1.20;;;26.30;57.30;;;;;;5089406;28;20036;-70
2022/06/03 12:15:38;;;;;;;3.30;1.20;;;26.70;54.70;;;;;;5096620;28;20032;-69
2022/06/03 12:18:12;;;;;;;1.30;1.20;;;26.60;53.10;;;;;;5102683;28;20061;-70
2022/06/03 12:20:53;;;;;;;1.02;1.00;;;26.60;53.60;;;;;;5110821;28;20027;-69
2022/06/03 12:28:45;;;;;;;1.90;1.30;;;26.40;54.60;;;;;;5105155;27;20174;-69
2022/06/03 12:31:42;;;;;;;2.85;1.20;;;26.30;54.20;;;;;;5090949;28;20371;-68
2022/06/03 12:34:20;;;;;;;2.88;1.38;;;26.70;54.20;;;;;;5105261;28;20606;-69
2022/06/03 12:39:27;;;;;;;3.58;1.10;;;26.50;53.30;;;;;;5109475;27;20300;-70
2022/06/03 12:44:49;;;;;;;4.15;1.50;;;26.70;53.00;;;;;;5108538;27;20453;-69
2022/06/03 12:50:16;;;;;;;1.70;1.58;;;26.80;55.80;;;;;;5108775;27;20404;-70
2022/06/03 12:52:44;;;;;;;3.05;1.83;;;27.00;55.00;;;;;;5110829;28;20039;-69
2022/06/03 12:55:22;;;;;;;2.17;1.20;;;26.50;56.20;;;;;;5081975;28;20647;-69
2022/06/03 12:58:01;;;;;;;2.25;1.50;;;26.90;54.80;;;;;;5110918;28;20035;-69
2022/06/03 13:00:34;;;;;;;1.40;1.30;;;27.30;55.00;;;;;;5070419;28;20035;-69
2022/06/03 13:03:23;;;;;;;3.53;1.40;;;27.00;52.70;;;;;;5068894;28;20527;-68
2022/06/03 13:05:51;;;;;;;3.75;1.30;;;26.90;53.60;;;;;;5070147;28;20025;-69
2022/06/03 13:09:34;;;;;;;3.03;1.40;;;26.70;56.40;;;;;;5069069;28;20025;-69
2022/06/03 13:16:46;;;;;;;2.10;1.42;;;26.90;55.50;;;;;;5090744;28;20377;-70
2022/06/03 13:24:36;;;;;;;2.60;1.67;;;26.70;53.30;;;;;;5107616;27;20461;-70
2022/06/03 13:30:08;;;;;;;1.60;1.45;;;26.80;52.50;;;;;;5089327;28;20186;-69
2022/06/03 13:35:31;;;;;;;1.50;1.40;;;26.90;56.00;;;;;;5102444;27;20351;-70
2022/06/03 13:38:16;;;;;;;2.58;1.30;;;27.20;54.20;;;;;;5111553;28;20432;-70
2022/06/03 13:42:57;;;;;;;2.25;1.33;;;26.90;54.40;;;;;;5092546;28;20527;-70
2022/06/03 13:43:29;;;;;;;2.60;1.60;;;26.50;53.80;;;;;;5109691;28;20034;-70
2022/06/03 13:46:02;;;;;;;1.55;1.38;;;26.10;54.90;;;;;;5113118;28;20039;-70
2022/06/03 13:51:49;;;;;;;2.83;1.63;;;25.80;55.10;;;;;;5109829;27;20939;-69
2022/06/03 13:54:20;;;;;;;2.83;1.55;;;25.50;57.30;;;;;;5109765;28;20055;-69
2022/06/03 13:56:59;;;;;;;4.30;1.60;;;25.90;57.70;;;;;;5103457;28;20016;-70
2022/06/03 13:59:31;;;;;;;4.18;1.83;;;26.30;57.00;;;;;;5110931;28;20036;-68
2022/06/03 14:01:57;;;;;;;3.08;1.48;;;26.40;56.70;;;;;;5106782;28;20020;-69
2022/06/03 14:04:27;;;;;;;1.80;1.52;;;26.50;57.60;;;;;;5111055;28;20486;-68
2022/06/03 14:07:04;;;;;;;1.88;1.33;;;26.90;58.00;;;;;;5104787;28;20030;-69
2022/06/03 14:09:37;;;;;;;1.73;1.63;;;26.30;54.80;;;;;;5092365;28;20034;-69
2022/06/03 14:15:07;;;;;;;2.38;1.60;;;26.20;56.80;;;;;;5051124;28;20400;-69
2022/06/03 14:17:54;;;;;;;3.22;1.80;;;26.30;56.20;;;;;;5033255;28;20084;-70
2022/06/03 14:20:30;;;;;;;3.72;1.48;;;26.30;56.80;;;;;;5030406;28;20421;-70
2022/06/03 14:23:22;;;;;;;3.97;2.00;;;26.30;57.40;;;;;;5034330;28;20030;-69
2022/06/03 14:25:52;;;;;;;1.92;1.70;;;25.80;58.00;;;;;;5032950;28;20033;-70
2022/06/03 14:28:45;;;;;;;2.50;1.38;;;25.70;58.10;;;;;;5029086;28;20034;-69
2022/06/03 14:31:35;;;;;;;2.92;1.80;;;25.50;58.80;;;;;;5012598;28;20473;-70
2022/06/03 14:34:13;;;;;;;2.15;2.00;;;25.30;58.80;;;;;;5015602;28;20425;-69
2022/06/03 14:36:39;;;;;;;2.17;1.85;;;25.00;60.20;;;;;;5014691;28;20030;-69
2022/06/03 14:39:11;;;;;;;3.45;1.80;;;25.10;59.90;;;;;;5034177;28;20047;-70
2022/06/03 14:41:43;;;;;;;3.88;2.50;;;25.20;60.30;;;;;;5030109;28;20030;-69
2022/06/03 14:44:14;;;;;;;2.85;2.20;;;25.10;62.00;;;;;;5015599;28;20057;-69
2022/06/03 14:46:49;;;;;;;3.17;2.13;;;25.20;61.00;;;;;;5031342;28;20039;-70
2022/06/03 14:49:20;;;;;;;5.07;2.35;;;25.40;63.20;;;;;;5027703;28;20026;-69
2022/06/03 14:51:48;;;;;;;2.85;2.65;;;25.50;62.10;;;;;;5047037;28;20044;-70
2022/06/03 14:54:21;;;;;;;3.97;2.17;;;25.70;61.50;;;;;;5028016;28;20048;-69
2022/06/03 14:56:51;;;;;;;2.60;1.80;;;25.70;61.50;;;;;;5049499;28;20040;-70
2022/06/03 14:59:37;;;;;;;2.40;2.00;;;25.90;62.90;;;;;;5017228;28;20026;-70
2022/06/03 15:02:15;;;;;;;5.18;1.80;;;25.90;60.30;;;;;;5020272;28;20021;-70
2022/06/03 15:04:51;;;;;;;2.30;1.88;;;25.90;60.10;;;;;;5061226;28;20394;-69
2022/06/03 15:07:24;;;;;;;2.95;1.90;;;25.70;60.80;;;;;;5020088;28;20022;-69
2022/06/03 15:09:54;;;;;;;3.33;1.92;;;25.70;60.30;;;;;;5029647;28;20022;-69
2022/06/03 15:12:23;;;;;;;4.00;1.98;;;25.60;60.00;;;;;;5029224;28;20060;-69
2022/06/03 15:14:50;;;;;;;2.55;2.22;;;25.50;59.80;;;;;;5028370;28;20651;-69
2022/06/03 15:17:21;;;;;;;2.10;1.90;;;25.10;64.20;;;;;;5031944;28;20459;-70
2022/06/03 15:19:52;;;;;;;3.83;2.17;;;25.30;61.60;;;;;;5037773;28;20025;-70
2022/06/03 15:22:24;;;;;;;2.88;2.20;;;25.60;61.00;;;;;;5062339;28;20025;-70
2022/06/03 15:24:55;;;;;;;3.22;2.03;;;25.70;60.30;;;;;;5024980;28;20022;-70
2022/06/03 15:27:30;;;;;;;4.38;2.35;;;25.60;63.00;;;;;;5005862;28;20025;-69
2022/06/03 15:29:56;;;;;;;4.38;2.13;;;25.50;64.40;;;;;;5016156;28;20022;-69
2022/06/03 15:32:22;;;;;;;3.40;2.17;;;25.40;66.10;;;;;;5011564;28;20045;-70
2022/06/03 15:34:48;;;;;;;4.90;2.20;;;25.00;68.00;;;;;;5017837;28;20432;-70
2022/06/03 15:37:16;;;;;;;2.50;2.30;;;25.10;68.80;;;;;;5017849;28;20037;-69
2022/06/03 15:39:51;;;;;;;3.10;2.90;;;25.20;68.60;;;;;;5011886;28;20022;-69
2022/06/03 15:42:23;;;;;;;4.05;2.70;;;24.90;68.90;;;;;;5005773;28;20037;-69
2022/06/03 15:44:49;;;;;;;4.22;2.17;;;24.80;69.60;;;;;;4998529;28;20036;-69
2022/06/03 15:47:19;;;;;;;4.40;2.50;;;25.10;70.30;;;;;;4998388;28;20038;-70
2022/06/03 15:50:01;;;;;;;4.85;2.65;;;24.90;69.40;;;;;;4998257;28;20093;-69
2022/06/03 15:52:27;;;;;;;2.67;2.47;;;24.80;70.40;;;;;;4983729;28;20056;-70
2022/06/03 15:54:57;;;;;;;5.80;2.97;;;24.50;71.00;;;;;;5015645;28;20014;-70
2022/06/03 15:57:56;;;;;;;4.80;2.92;;;24.40;70.30;;;;;;4966212;28;20477;-69
2022/06/03 16:00:42;;;;;;;2.47;2.28;;;24.40;72.20;;;;;;5015432;28;20076;-69
2022/06/03 16:03:39;;;;;;;4.10;3.10;;;24.40;72.90;;;;;;5015563;28;20026;-69
2022/06/03 16:06:18;;;;;;;4.65;2.85;;;24.40;71.20;;;;;;4997934;28;20026;-69
2022/06/03 16:09:24;;;;;;;3.70;2.70;;;24.40;71.20;;;;;;4998221;28;20033;-70
2022/06/03 16:12:05;;;;;;;4.22;3.03;;;24.20;72.40;;;;;;4997656;28;20033;-69
2022/06/03 16:14:55;;;;;;;8.55;5.90;;;24.10;73.00;;;;;;4961456;28;20387;-70
2022/06/03 16:17:46;;;;;;;5.65;3.20;;;24.20;74.10;;;;;;4975133;28;20419;-69
2022/06/03 16:20:16;;;;;;;4.88;3.25;;;23.90;74.40;;;;;;4976195;28;20027;-70
2022/06/03 16:23:19;;;;;;;5.47;3.28;;;23.80;75.00;;;;;;4974905;28;20037;-69
2022/06/03 16:26:10;;;;;;;3.45;2.78;;;23.80;75.30;;;;;;4976131;28;20396;-70
2022/06/03 16:28:55;;;;;;;2.80;2.60;;;23.70;76.10;;;;;;4975950;28;20426;-70
2022/06/03 16:31:47;;;;;;;6.72;2.92;;;23.60;77.00;;;;;;4975965;28;20030;-70
2022/06/03 16:34:45;;;;;;;5.22;2.97;;;23.50;76.70;;;;;;4974638;28;20486;-70
2022/06/03 16:37:39;;;;;;;2.97;2.58;;;23.40;75.80;;;;;;4973688;28;20386;-70
2022/06/03 16:40:19;;;;;;;5.28;2.63;;;23.30;75.30;;;;;;4990652;28;20500;-69